sensor_id;sensor_type;location;lat;lon;timestamp;P1;durP1;ratioP1;P2;durP2;ratioP2
7845;SDS011;3968;51.424;6.788;2024-03-07T00:02:14;54.63;;;34.03;;
7845;SDS011;3968;51.424;6.788;2024-03-07T00:04:42;49.30;;;33.43;;
7845;SDS011;3968;51.424;6.788;2024-03-07T00:07:08;50.53;;;31.97;;
7845;SDS011;3968;51.424;6.788;2024-03-07T00:09:34;52.17;;;33.97;;
7845;SDS011;3968;51.424;6.788;2024-03-07T00:12:01;47.40;;;31.73;;
7845;SDS011;3968;51.424;6.788;2024-03-07T00:14:27;49.07;;;32.00;;
7845;SDS011;3968;51.424;6.788;2024-03-07T00:16:53;52.40;;;33.33;;
7845;SDS011;3968;51.424;6.788;2024-03-07T00:19:22;54.93;;;34.60;;
7845;SDS011;3968;51.424;6.788;2024-03-07T00:21:58;48.60;;;32.17;;
7845;SDS011;3968;51.424;6.788;2024-03-07T00:24:24;53.10;;;33.40;;
7845;SDS011;3968;51.424;6.788;2024-03-07T00:26:49;52.07;;;34.27;;
7845;SDS011;3968;51.424;6.788;2024-03-07T00:29:16;54.20;;;33.60;;
7845;SDS011;3968;51.424;6.788;2024-03-07T00:31:43;56.20;;;34.37;;
7845;SDS011;3968;51.424;6.788;2024-03-07T00:34:10;53.33;;;33.60;;
7845;SDS011;3968;51.424;6.788;2024-03-07T00:36:36;53.93;;;33.87;;
7845;SDS011;3968;51.424;6.788;2024-03-07T00:39:03;59.13;;;34.83;;
7845;SDS011;3968;51.424;6.788;2024-03-07T00:41:29;54.83;;;34.00;;
7845;SDS011;3968;51.424;6.788;2024-03-07T00:43:55;55.70;;;33.53;;
7845;SDS011;3968;51.424;6.788;2024-03-07T00:46:21;53.53;;;33.23;;
7845;SDS011;3968;51.424;6.788;2024-03-07T00:48:47;51.93;;;35.07;;
7845;SDS011;3968;51.424;6.788;2024-03-07T00:51:12;51.70;;;34.70;;
7845;SDS011;3968;51.424;6.788;2024-03-07T00:53:38;54.83;;;34.10;;
7845;SDS011;3968;51.424;6.788;2024-03-07T00:56:03;51.47;;;34.20;;
7845;SDS011;3968;51.424;6.788;2024-03-07T00:58:30;54.10;;;34.50;;
7845;SDS011;3968;51.424;6.788;2024-03-07T01:00:56;51.43;;;33.20;;
7845;SDS011;3968;51.424;6.788;2024-03-07T01:03:22;57.07;;;34.83;;
7845;SDS011;3968;51.424;6.788;2024-03-07T01:05:49;59.83;;;34.60;;
7845;SDS011;3968;51.424;6.788;2024-03-07T01:08:14;58.00;;;36.30;;
7845;SDS011;3968;51.424;6.788;2024-03-07T01:10:40;53.90;;;34.80;;
7845;SDS011;3968;51.424;6.788;2024-03-07T01:13:06;60.90;;;34.90;;
7845;SDS011;3968;51.424;6.788;2024-03-07T01:15:34;57.27;;;36.37;;
7845;SDS011;3968;51.424;6.788;2024-03-07T01:17:59;55.67;;;34.27;;
7845;SDS011;3968;51.424;6.788;2024-03-07T01:20:25;54.10;;;33.93;;
7845;SDS011;3968;51.424;6.788;2024-03-07T01:22:51;59.30;;;36.17;;
7845;SDS011;3968;51.424;6.788;2024-03-07T01:25:17;58.07;;;33.60;;
7845;SDS011;3968;51.424;6.788;2024-03-07T01:27:43;61.93;;;35.33;;
7845;SDS011;3968;51.424;6.788;2024-03-07T01:30:09;53.97;;;34.03;;
7845;SDS011;3968;51.424;6.788;2024-03-07T01:32:35;56.23;;;35.03;;
7845;SDS011;3968;51.424;6.788;2024-03-07T01:35:01;59.57;;;34.70;;
7845;SDS011;3968;51.424;6.788;2024-03-07T01:37:26;58.93;;;36.03;;
7845;SDS011;3968;51.424;6.788;2024-03-07T01:39:53;55.53;;;34.60;;
7845;SDS011;3968;51.424;6.788;2024-03-07T01:42:19;59.13;;;35.63;;
7845;SDS011;3968;51.424;6.788;2024-03-07T01:44:44;53.63;;;34.57;;
7845;SDS011;3968;51.424;6.788;2024-03-07T01:47:10;62.50;;;36.47;;
7845;SDS011;3968;51.424;6.788;2024-03-07T01:49:36;56.00;;;34.00;;
7845;SDS011;3968;51.424;6.788;2024-03-07T01:52:04;61.53;;;36.17;;
7845;SDS011;3968;51.424;6.788;2024-03-07T01:54:30;57.13;;;36.10;;
7845;SDS011;3968;51.424;6.788;2024-03-07T01:56:56;60.10;;;36.40;;
7845;SDS011;3968;51.424;6.788;2024-03-07T01:59:23;57.93;;;35.20;;
7845;SDS011;3968;51.424;6.788;2024-03-07T02:01:49;59.00;;;36.60;;
7845;SDS011;3968;51.424;6.788;2024-03-07T02:04:15;54.30;;;34.87;;
7845;SDS011;3968;51.424;6.788;2024-03-07T02:06:41;54.13;;;35.07;;
7845;SDS011;3968;51.424;6.788;2024-03-07T02:09:07;56.90;;;36.57;;
7845;SDS011;3968;51.424;6.788;2024-03-07T02:11:33;53.63;;;34.60;;
7845;SDS011;3968;51.424;6.788;2024-03-07T02:13:59;56.00;;;35.27;;
7845;SDS011;3968;51.424;6.788;2024-03-07T02:16:25;52.90;;;33.73;;
7845;SDS011;3968;51.424;6.788;2024-03-07T02:18:50;49.23;;;33.00;;
7845;SDS011;3968;51.424;6.788;2024-03-07T02:21:16;53.83;;;35.00;;
7845;SDS011;3968;51.424;6.788;2024-03-07T02:23:42;54.40;;;33.63;;
7845;SDS011;3968;51.424;6.788;2024-03-07T02:26:08;58.73;;;33.97;;
7845;SDS011;3968;51.424;6.788;2024-03-07T02:28:34;53.20;;;34.73;;
7845;SDS011;3968;51.424;6.788;2024-03-07T02:31:00;54.93;;;35.63;;
7845;SDS011;3968;51.424;6.788;2024-03-07T02:33:26;55.17;;;33.97;;
7845;SDS011;3968;51.424;6.788;2024-03-07T02:35:51;49.20;;;33.40;;
7845;SDS011;3968;51.424;6.788;2024-03-07T02:38:17;59.43;;;36.50;;
7845;SDS011;3968;51.424;6.788;2024-03-07T02:40:43;54.57;;;34.97;;
7845;SDS011;3968;51.424;6.788;2024-03-07T02:43:08;55.03;;;34.23;;
7845;SDS011;3968;51.424;6.788;2024-03-07T02:45:34;56.80;;;35.63;;
7845;SDS011;3968;51.424;6.788;2024-03-07T02:48:00;51.87;;;33.67;;
7845;SDS011;3968;51.424;6.788;2024-03-07T02:50:25;53.00;;;33.83;;
7845;SDS011;3968;51.424;6.788;2024-03-07T02:52:51;58.20;;;35.50;;
7845;SDS011;3968;51.424;6.788;2024-03-07T02:55:17;57.37;;;34.57;;
7845;SDS011;3968;51.424;6.788;2024-03-07T02:57:43;55.17;;;32.90;;
7845;SDS011;3968;51.424;6.788;2024-03-07T03:00:10;54.67;;;35.40;;
7845;SDS011;3968;51.424;6.788;2024-03-07T03:02:48;56.67;;;34.80;;
7845;SDS011;3968;51.424;6.788;2024-03-07T03:05:17;57.40;;;34.60;;
7845;SDS011;3968;51.424;6.788;2024-03-07T03:07:43;55.73;;;33.70;;
7845;SDS011;3968;51.424;6.788;2024-03-07T03:10:16;56.33;;;34.47;;
7845;SDS011;3968;51.424;6.788;2024-03-07T03:12:42;58.00;;;35.00;;
7845;SDS011;3968;51.424;6.788;2024-03-07T03:15:09;58.13;;;34.83;;
7845;SDS011;3968;51.424;6.788;2024-03-07T03:17:36;55.30;;;33.57;;
7845;SDS011;3968;51.424;6.788;2024-03-07T03:20:02;59.83;;;35.40;;
7845;SDS011;3968;51.424;6.788;2024-03-07T03:22:39;60.37;;;35.90;;
7845;SDS011;3968;51.424;6.788;2024-03-07T03:25:05;57.53;;;35.40;;
7845;SDS011;3968;51.424;6.788;2024-03-07T03:27:32;55.20;;;34.80;;
7845;SDS011;3968;51.424;6.788;2024-03-07T03:29:57;52.47;;;34.63;;
7845;SDS011;3968;51.424;6.788;2024-03-07T03:32:25;57.50;;;35.47;;
7845;SDS011;3968;51.424;6.788;2024-03-07T03:34:50;54.97;;;34.67;;
7845;SDS011;3968;51.424;6.788;2024-03-07T03:37:17;53.13;;;33.83;;
7845;SDS011;3968;51.424;6.788;2024-03-07T03:39:43;54.87;;;34.33;;
7845;SDS011;3968;51.424;6.788;2024-03-07T03:42:09;55.10;;;34.77;;
7845;SDS011;3968;51.424;6.788;2024-03-07T03:44:34;53.73;;;34.13;;
7845;SDS011;3968;51.424;6.788;2024-03-07T03:47:00;52.40;;;33.23;;
7845;SDS011;3968;51.424;6.788;2024-03-07T03:49:27;54.40;;;34.83;;
7845;SDS011;3968;51.424;6.788;2024-03-07T03:51:52;59.20;;;35.73;;
7845;SDS011;3968;51.424;6.788;2024-03-07T03:54:18;53.43;;;32.57;;
7845;SDS011;3968;51.424;6.788;2024-03-07T03:56:43;58.87;;;34.67;;
7845;SDS011;3968;51.424;6.788;2024-03-07T03:59:09;49.27;;;34.00;;
7845;SDS011;3968;51.424;6.788;2024-03-07T04:01:34;51.97;;;33.47;;
7845;SDS011;3968;51.424;6.788;2024-03-07T04:04:00;56.53;;;34.13;;
7845;SDS011;3968;51.424;6.788;2024-03-07T04:06:28;55.47;;;32.90;;
7845;SDS011;3968;51.424;6.788;2024-03-07T04:08:54;55.33;;;34.50;;
7845;SDS011;3968;51.424;6.788;2024-03-07T04:11:20;56.87;;;32.67;;
7845;SDS011;3968;51.424;6.788;2024-03-07T04:13:46;54.77;;;34.57;;
7845;SDS011;3968;51.424;6.788;2024-03-07T04:16:11;58.17;;;34.20;;
7845;SDS011;3968;51.424;6.788;2024-03-07T04:18:37;57.20;;;34.70;;
7845;SDS011;3968;51.424;6.788;2024-03-07T04:21:03;56.57;;;34.70;;
7845;SDS011;3968;51.424;6.788;2024-03-07T04:23:29;61.93;;;35.13;;
7845;SDS011;3968;51.424;6.788;2024-03-07T04:25:54;57.80;;;33.43;;
7845;SDS011;3968;51.424;6.788;2024-03-07T04:28:21;52.23;;;34.20;;
7845;SDS011;3968;51.424;6.788;2024-03-07T04:30:47;50.73;;;32.50;;
7845;SDS011;3968;51.424;6.788;2024-03-07T04:33:14;51.00;;;33.47;;
7845;SDS011;3968;51.424;6.788;2024-03-07T04:35:40;47.97;;;33.33;;
7845;SDS011;3968;51.424;6.788;2024-03-07T04:38:05;49.27;;;33.53;;
7845;SDS011;3968;51.424;6.788;2024-03-07T04:40:36;50.73;;;33.20;;
7845;SDS011;3968;51.424;6.788;2024-03-07T04:43:02;53.17;;;33.23;;
7845;SDS011;3968;51.424;6.788;2024-03-07T04:45:28;54.87;;;32.93;;
7845;SDS011;3968;51.424;6.788;2024-03-07T04:47:54;50.30;;;33.30;;
7845;SDS011;3968;51.424;6.788;2024-03-07T04:50:19;56.00;;;35.10;;
7845;SDS011;3968;51.424;6.788;2024-03-07T04:52:45;50.37;;;32.13;;
7845;SDS011;3968;51.424;6.788;2024-03-07T04:55:11;52.10;;;33.23;;
7845;SDS011;3968;51.424;6.788;2024-03-07T04:57:38;49.03;;;32.57;;
7845;SDS011;3968;51.424;6.788;2024-03-07T05:00:08;53.70;;;33.87;;
7845;SDS011;3968;51.424;6.788;2024-03-07T05:02:39;56.60;;;34.40;;
7845;SDS011;3968;51.424;6.788;2024-03-07T05:05:06;55.17;;;33.73;;
7845;SDS011;3968;51.424;6.788;2024-03-07T05:07:32;55.97;;;34.43;;
7845;SDS011;3968;51.424;6.788;2024-03-07T05:09:58;48.73;;;31.87;;
7845;SDS011;3968;51.424;6.788;2024-03-07T05:12:23;53.70;;;34.20;;
7845;SDS011;3968;51.424;6.788;2024-03-07T05:14:49;50.60;;;33.80;;
7845;SDS011;3968;51.424;6.788;2024-03-07T05:17:14;54.13;;;34.17;;
7845;SDS011;3968;51.424;6.788;2024-03-07T05:19:40;48.97;;;32.77;;
7845;SDS011;3968;51.424;6.788;2024-03-07T05:22:06;50.80;;;31.40;;
7845;SDS011;3968;51.424;6.788;2024-03-07T05:24:31;51.03;;;32.80;;
7845;SDS011;3968;51.424;6.788;2024-03-07T05:26:58;49.10;;;31.57;;
7845;SDS011;3968;51.424;6.788;2024-03-07T05:29:24;49.03;;;32.97;;
7845;SDS011;3968;51.424;6.788;2024-03-07T05:31:50;53.27;;;33.87;;
7845;SDS011;3968;51.424;6.788;2024-03-07T05:34:16;49.60;;;33.00;;
7845;SDS011;3968;51.424;6.788;2024-03-07T05:36:45;46.63;;;31.73;;
7845;SDS011;3968;51.424;6.788;2024-03-07T05:39:12;43.70;;;30.93;;
7845;SDS011;3968;51.424;6.788;2024-03-07T05:41:38;44.93;;;31.70;;
7845;SDS011;3968;51.424;6.788;2024-03-07T05:44:04;50.83;;;32.60;;
7845;SDS011;3968;51.424;6.788;2024-03-07T05:46:34;49.93;;;31.50;;
7845;SDS011;3968;51.424;6.788;2024-03-07T05:49:00;51.53;;;32.03;;
7845;SDS011;3968;51.424;6.788;2024-03-07T05:51:26;48.27;;;31.67;;
7845;SDS011;3968;51.424;6.788;2024-03-07T05:53:51;48.37;;;30.93;;
7845;SDS011;3968;51.424;6.788;2024-03-07T05:56:17;50.13;;;31.60;;
7845;SDS011;3968;51.424;6.788;2024-03-07T05:58:43;48.27;;;31.07;;
7845;SDS011;3968;51.424;6.788;2024-03-07T06:01:08;47.70;;;31.10;;
7845;SDS011;3968;51.424;6.788;2024-03-07T06:03:34;43.70;;;30.10;;
7845;SDS011;3968;51.424;6.788;2024-03-07T06:06:00;49.03;;;31.77;;
7845;SDS011;3968;51.424;6.788;2024-03-07T06:08:26;49.67;;;31.53;;
7845;SDS011;3968;51.424;6.788;2024-03-07T06:10:52;47.10;;;30.73;;
7845;SDS011;3968;51.424;6.788;2024-03-07T06:13:18;43.40;;;29.83;;
7845;SDS011;3968;51.424;6.788;2024-03-07T06:15:44;45.97;;;30.80;;
7845;SDS011;3968;51.424;6.788;2024-03-07T06:18:11;45.43;;;31.67;;
7845;SDS011;3968;51.424;6.788;2024-03-07T06:20:38;46.10;;;29.63;;
7845;SDS011;3968;51.424;6.788;2024-03-07T06:23:07;42.93;;;28.13;;
7845;SDS011;3968;51.424;6.788;2024-03-07T06:25:35;44.10;;;28.93;;
7845;SDS011;3968;51.424;6.788;2024-03-07T06:28:15;47.90;;;30.60;;
7845;SDS011;3968;51.424;6.788;2024-03-07T06:30:42;44.77;;;31.07;;
7845;SDS011;3968;51.424;6.788;2024-03-07T06:33:10;41.23;;;28.43;;
7845;SDS011;3968;51.424;6.788;2024-03-07T06:35:36;44.87;;;29.67;;
7845;SDS011;3968;51.424;6.788;2024-03-07T06:38:03;45.93;;;30.03;;
7845;SDS011;3968;51.424;6.788;2024-03-07T06:40:34;43.37;;;29.47;;
7845;SDS011;3968;51.424;6.788;2024-03-07T06:43:01;39.80;;;29.33;;
7845;SDS011;3968;51.424;6.788;2024-03-07T06:45:31;40.83;;;29.43;;
7845;SDS011;3968;51.424;6.788;2024-03-07T06:47:57;41.67;;;29.60;;
7845;SDS011;3968;51.424;6.788;2024-03-07T06:50:23;46.13;;;30.57;;
7845;SDS011;3968;51.424;6.788;2024-03-07T06:52:49;43.27;;;28.87;;
7845;SDS011;3968;51.424;6.788;2024-03-07T06:55:15;41.30;;;29.17;;
7845;SDS011;3968;51.424;6.788;2024-03-07T06:57:42;47.03;;;30.07;;
7845;SDS011;3968;51.424;6.788;2024-03-07T07:00:08;43.33;;;30.07;;
7845;SDS011;3968;51.424;6.788;2024-03-07T07:02:39;45.10;;;30.23;;
7845;SDS011;3968;51.424;6.788;2024-03-07T07:05:06;41.90;;;29.70;;
7845;SDS011;3968;51.424;6.788;2024-03-07T07:07:36;43.03;;;29.27;;
7845;SDS011;3968;51.424;6.788;2024-03-07T07:10:08;47.03;;;30.10;;
7845;SDS011;3968;51.424;6.788;2024-03-07T07:12:40;39.70;;;28.33;;
7845;SDS011;3968;51.424;6.788;2024-03-07T07:15:18;45.93;;;30.57;;
7845;SDS011;3968;51.424;6.788;2024-03-07T07:17:45;41.50;;;28.87;;
7845;SDS011;3968;51.424;6.788;2024-03-07T07:20:12;40.50;;;29.37;;
7845;SDS011;3968;51.424;6.788;2024-03-07T07:22:40;40.60;;;29.03;;
7845;SDS011;3968;51.424;6.788;2024-03-07T07:25:07;41.13;;;30.20;;
7845;SDS011;3968;51.424;6.788;2024-03-07T07:27:45;47.23;;;30.40;;
7845;SDS011;3968;51.424;6.788;2024-03-07T07:30:13;49.10;;;30.27;;
7845;SDS011;3968;51.424;6.788;2024-03-07T07:32:43;45.13;;;28.47;;
7845;SDS011;3968;51.424;6.788;2024-03-07T07:35:09;42.53;;;30.43;;
7845;SDS011;3968;51.424;6.788;2024-03-07T07:37:40;43.70;;;28.97;;
7845;SDS011;3968;51.424;6.788;2024-03-07T07:40:07;44.97;;;30.00;;
7845;SDS011;3968;51.424;6.788;2024-03-07T07:42:37;41.33;;;30.00;;
7845;SDS011;3968;51.424;6.788;2024-03-07T07:45:07;45.53;;;29.53;;
7845;SDS011;3968;51.424;6.788;2024-03-07T07:47:40;42.90;;;29.83;;
7845;SDS011;3968;51.424;6.788;2024-03-07T07:50:17;42.27;;;29.43;;
7845;SDS011;3968;51.424;6.788;2024-03-07T07:52:45;43.77;;;30.63;;
7845;SDS011;3968;51.424;6.788;2024-03-07T07:55:18;43.93;;;29.60;;
7845;SDS011;3968;51.424;6.788;2024-03-07T07:57:49;42.40;;;28.60;;
7845;SDS011;3968;51.424;6.788;2024-03-07T08:00:18;47.90;;;29.43;;
7845;SDS011;3968;51.424;6.788;2024-03-07T08:02:54;41.93;;;31.17;;
7845;SDS011;3968;51.424;6.788;2024-03-07T08:05:31;45.20;;;30.77;;
7845;SDS011;3968;51.424;6.788;2024-03-07T08:08:04;41.90;;;29.23;;
7845;SDS011;3968;51.424;6.788;2024-03-07T08:10:31;44.40;;;29.63;;
7845;SDS011;3968;51.424;6.788;2024-03-07T08:12:58;41.23;;;30.17;;
7845;SDS011;3968;51.424;6.788;2024-03-07T08:15:26;43.10;;;29.50;;
7845;SDS011;3968;51.424;6.788;2024-03-07T08:17:55;38.53;;;28.53;;
7845;SDS011;3968;51.424;6.788;2024-03-07T08:20:22;43.13;;;28.50;;
7845;SDS011;3968;51.424;6.788;2024-03-07T08:22:49;44.93;;;31.13;;
7845;SDS011;3968;51.424;6.788;2024-03-07T08:25:19;45.40;;;29.57;;
7845;SDS011;3968;51.424;6.788;2024-03-07T08:27:47;45.50;;;30.57;;
7845;SDS011;3968;51.424;6.788;2024-03-07T08:30:14;44.30;;;30.23;;
7845;SDS011;3968;51.424;6.788;2024-03-07T08:32:40;42.97;;;29.07;;
7845;SDS011;3968;51.424;6.788;2024-03-07T08:35:07;46.60;;;29.47;;
7845;SDS011;3968;51.424;6.788;2024-03-07T08:37:38;42.43;;;29.83;;
7845;SDS011;3968;51.424;6.788;2024-03-07T08:40:04;44.23;;;30.47;;
7845;SDS011;3968;51.424;6.788;2024-03-07T08:42:35;44.30;;;28.70;;
7845;SDS011;3968;51.424;6.788;2024-03-07T08:45:06;41.60;;;28.37;;
7845;SDS011;3968;51.424;6.788;2024-03-07T08:47:35;41.27;;;27.87;;
7845;SDS011;3968;51.424;6.788;2024-03-07T08:50:02;39.20;;;27.53;;
7845;SDS011;3968;51.424;6.788;2024-03-07T08:52:33;40.40;;;28.30;;
7845;SDS011;3968;51.424;6.788;2024-03-07T08:55:19;42.93;;;27.60;;
7845;SDS011;3968;51.424;6.788;2024-03-07T08:57:46;39.67;;;26.33;;
7845;SDS011;3968;51.424;6.788;2024-03-07T09:00:14;37.13;;;25.23;;
7845;SDS011;3968;51.424;6.788;2024-03-07T09:02:50;40.27;;;25.40;;
7845;SDS011;3968;51.424;6.788;2024-03-07T09:05:17;34.70;;;24.73;;
7845;SDS011;3968;51.424;6.788;2024-03-07T09:07:43;33.53;;;23.40;;
7845;SDS011;3968;51.424;6.788;2024-03-07T09:10:11;29.93;;;23.07;;
7845;SDS011;3968;51.424;6.788;2024-03-07T09:12:37;33.33;;;22.13;;
7845;SDS011;3968;51.424;6.788;2024-03-07T09:15:03;29.57;;;22.33;;
7845;SDS011;3968;51.424;6.788;2024-03-07T09:17:29;30.73;;;21.80;;
7845;SDS011;3968;51.424;6.788;2024-03-07T09:19:55;33.23;;;22.57;;
7845;SDS011;3968;51.424;6.788;2024-03-07T09:22:21;27.47;;;20.70;;
7845;SDS011;3968;51.424;6.788;2024-03-07T09:24:46;26.67;;;19.10;;
7845;SDS011;3968;51.424;6.788;2024-03-07T09:27:12;28.47;;;18.93;;
7845;SDS011;3968;51.424;6.788;2024-03-07T09:29:40;27.53;;;19.50;;
7845;SDS011;3968;51.424;6.788;2024-03-07T09:32:05;26.63;;;18.50;;
7845;SDS011;3968;51.424;6.788;2024-03-07T09:34:33;28.07;;;19.50;;
7845;SDS011;3968;51.424;6.788;2024-03-07T09:37:00;25.73;;;18.40;;
7845;SDS011;3968;51.424;6.788;2024-03-07T09:39:26;26.53;;;18.60;;
7845;SDS011;3968;51.424;6.788;2024-03-07T09:41:52;25.60;;;19.20;;
7845;SDS011;3968;51.424;6.788;2024-03-07T09:44:20;27.90;;;19.07;;
7845;SDS011;3968;51.424;6.788;2024-03-07T09:46:49;27.03;;;17.77;;
7845;SDS011;3968;51.424;6.788;2024-03-07T09:49:16;24.20;;;18.10;;
7845;SDS011;3968;51.424;6.788;2024-03-07T09:51:43;28.40;;;19.97;;
7845;SDS011;3968;51.424;6.788;2024-03-07T09:54:10;25.80;;;18.43;;
7845;SDS011;3968;51.424;6.788;2024-03-07T09:56:36;27.87;;;18.37;;
7845;SDS011;3968;51.424;6.788;2024-03-07T09:59:03;28.03;;;19.00;;
7845;SDS011;3968;51.424;6.788;2024-03-07T10:01:30;24.40;;;18.10;;
7845;SDS011;3968;51.424;6.788;2024-03-07T10:03:59;31.87;;;19.10;;
7845;SDS011;3968;51.424;6.788;2024-03-07T10:06:39;25.53;;;18.83;;
7845;SDS011;3968;51.424;6.788;2024-03-07T10:09:05;26.40;;;18.90;;
7845;SDS011;3968;51.424;6.788;2024-03-07T10:11:32;26.03;;;19.83;;
7845;SDS011;3968;51.424;6.788;2024-03-07T10:13:59;24.93;;;18.57;;
7845;SDS011;3968;51.424;6.788;2024-03-07T10:16:25;24.60;;;18.07;;
7845;SDS011;3968;51.424;6.788;2024-03-07T10:18:50;25.83;;;18.57;;
7845;SDS011;3968;51.424;6.788;2024-03-07T10:21:19;25.13;;;18.97;;
7845;SDS011;3968;51.424;6.788;2024-03-07T10:23:45;24.80;;;19.03;;
7845;SDS011;3968;51.424;6.788;2024-03-07T10:26:11;28.63;;;20.57;;
7845;SDS011;3968;51.424;6.788;2024-03-07T10:28:37;28.67;;;20.40;;
7845;SDS011;3968;51.424;6.788;2024-03-07T10:31:04;28.63;;;20.40;;
7845;SDS011;3968;51.424;6.788;2024-03-07T10:33:36;30.03;;;20.90;;
7845;SDS011;3968;51.424;6.788;2024-03-07T10:36:04;27.67;;;20.47;;
7845;SDS011;3968;51.424;6.788;2024-03-07T10:38:35;27.07;;;20.40;;
7845;SDS011;3968;51.424;6.788;2024-03-07T10:41:02;25.30;;;18.17;;
7845;SDS011;3968;51.424;6.788;2024-03-07T10:43:29;27.17;;;19.13;;
7845;SDS011;3968;51.424;6.788;2024-03-07T10:45:57;26.17;;;19.20;;
7845;SDS011;3968;51.424;6.788;2024-03-07T10:48:31;27.03;;;19.40;;
7845;SDS011;3968;51.424;6.788;2024-03-07T10:51:13;26.87;;;18.33;;
7845;SDS011;3968;51.424;6.788;2024-03-07T10:53:51;25.07;;;17.63;;
7845;SDS011;3968;51.424;6.788;2024-03-07T10:56:29;27.23;;;18.73;;
7845;SDS011;3968;51.424;6.788;2024-03-07T10:59:04;27.83;;;19.00;;
7845;SDS011;3968;51.424;6.788;2024-03-07T11:01:47;25.97;;;17.90;;
7845;SDS011;3968;51.424;6.788;2024-03-07T11:04:19;23.17;;;18.67;;
7845;SDS011;3968;51.424;6.788;2024-03-07T11:06:47;25.50;;;18.83;;
7845;SDS011;3968;51.424;6.788;2024-03-07T11:09:14;25.00;;;17.97;;
7845;SDS011;3968;51.424;6.788;2024-03-07T11:11:48;25.93;;;18.40;;
7845;SDS011;3968;51.424;6.788;2024-03-07T11:14:14;28.50;;;19.10;;
7845;SDS011;3968;51.424;6.788;2024-03-07T11:16:41;23.23;;;18.50;;
7845;SDS011;3968;51.424;6.788;2024-03-07T11:19:27;27.57;;;18.43;;
7845;SDS011;3968;51.424;6.788;2024-03-07T11:21:55;26.67;;;19.80;;
7845;SDS011;3968;51.424;6.788;2024-03-07T11:24:27;23.23;;;16.93;;
7845;SDS011;3968;51.424;6.788;2024-03-07T11:26:56;27.50;;;17.87;;
7845;SDS011;3968;51.424;6.788;2024-03-07T11:32:10;25.67;;;18.63;;
7845;SDS011;3968;51.424;6.788;2024-03-07T11:34:39;24.40;;;18.27;;
7845;SDS011;3968;51.424;6.788;2024-03-07T11:37:16;22.30;;;17.90;;
7845;SDS011;3968;51.424;6.788;2024-03-07T11:39:48;25.97;;;19.50;;
7845;SDS011;3968;51.424;6.788;2024-03-07T11:42:27;23.93;;;18.30;;
7845;SDS011;3968;51.424;6.788;2024-03-07T11:44:58;24.70;;;17.83;;
7845;SDS011;3968;51.424;6.788;2024-03-07T11:47:25;25.50;;;17.73;;
7845;SDS011;3968;51.424;6.788;2024-03-07T11:49:54;24.07;;;18.37;;
7845;SDS011;3968;51.424;6.788;2024-03-07T11:52:22;21.83;;;17.20;;
7845;SDS011;3968;51.424;6.788;2024-03-07T11:54:48;26.70;;;17.93;;
7845;SDS011;3968;51.424;6.788;2024-03-07T11:57:20;21.07;;;17.60;;
7845;SDS011;3968;51.424;6.788;2024-03-07T11:59:57;22.60;;;18.13;;
7845;SDS011;3968;51.424;6.788;2024-03-07T12:02:26;27.63;;;18.73;;
7845;SDS011;3968;51.424;6.788;2024-03-07T12:04:52;26.73;;;18.00;;
7845;SDS011;3968;51.424;6.788;2024-03-07T12:07:18;26.37;;;18.43;;
7845;SDS011;3968;51.424;6.788;2024-03-07T12:09:47;23.17;;;17.47;;
7845;SDS011;3968;51.424;6.788;2024-03-07T12:12:19;24.30;;;18.97;;
7845;SDS011;3968;51.424;6.788;2024-03-07T12:14:50;27.73;;;19.20;;
7845;SDS011;3968;51.424;6.788;2024-03-07T12:17:19;24.17;;;17.57;;
7845;SDS011;3968;51.424;6.788;2024-03-07T12:19:46;22.63;;;17.57;;
7845;SDS011;3968;51.424;6.788;2024-03-07T12:22:12;26.30;;;18.97;;
7845;SDS011;3968;51.424;6.788;2024-03-07T12:24:41;21.30;;;16.83;;
7845;SDS011;3968;51.424;6.788;2024-03-07T12:27:16;24.17;;;17.27;;
7845;SDS011;3968;51.424;6.788;2024-03-07T12:29:42;23.70;;;17.17;;
7845;SDS011;3968;51.424;6.788;2024-03-07T12:32:08;23.30;;;17.70;;
7845;SDS011;3968;51.424;6.788;2024-03-07T12:34:38;23.23;;;17.97;;
7845;SDS011;3968;51.424;6.788;2024-03-07T12:37:07;23.73;;;17.63;;
7845;SDS011;3968;51.424;6.788;2024-03-07T12:39:34;24.60;;;18.17;;
7845;SDS011;3968;51.424;6.788;2024-03-07T12:42:03;22.50;;;17.73;;
7845;SDS011;3968;51.424;6.788;2024-03-07T12:44:42;27.50;;;19.17;;
7845;SDS011;3968;51.424;6.788;2024-03-07T12:47:11;21.20;;;18.03;;
7845;SDS011;3968;51.424;6.788;2024-03-07T12:49:40;22.60;;;17.67;;
7845;SDS011;3968;51.424;6.788;2024-03-07T12:52:10;27.47;;;17.77;;
7845;SDS011;3968;51.424;6.788;2024-03-07T12:54:38;21.93;;;17.00;;
7845;SDS011;3968;51.424;6.788;2024-03-07T12:59:34;25.73;;;17.20;;
7845;SDS011;3968;51.424;6.788;2024-03-07T13:02:05;25.43;;;17.83;;
7845;SDS011;3968;51.424;6.788;2024-03-07T13:04:34;22.13;;;17.70;;
7845;SDS011;3968;51.424;6.788;2024-03-07T13:07:02;22.33;;;18.33;;
7845;SDS011;3968;51.424;6.788;2024-03-07T13:09:30;19.70;;;17.07;;
7845;SDS011;3968;51.424;6.788;2024-03-07T13:11:56;24.70;;;18.63;;
7845;SDS011;3968;51.424;6.788;2024-03-07T13:14:25;25.23;;;17.70;;
7845;SDS011;3968;51.424;6.788;2024-03-07T13:17:00;25.83;;;17.53;;
7845;SDS011;3968;51.424;6.788;2024-03-07T13:19:31;24.43;;;19.07;;
7845;SDS011;3968;51.424;6.788;2024-03-07T13:21:57;23.97;;;18.63;;
7845;SDS011;3968;51.424;6.788;2024-03-07T13:24:23;21.93;;;18.07;;
7845;SDS011;3968;51.424;6.788;2024-03-07T13:26:50;23.63;;;18.10;;
7845;SDS011;3968;51.424;6.788;2024-03-07T13:29:16;21.97;;;17.30;;
7845;SDS011;3968;51.424;6.788;2024-03-07T13:31:45;24.63;;;18.43;;
7845;SDS011;3968;51.424;6.788;2024-03-07T13:34:11;23.37;;;17.57;;
7845;SDS011;3968;51.424;6.788;2024-03-07T13:36:40;24.47;;;18.27;;
7845;SDS011;3968;51.424;6.788;2024-03-07T13:39:06;23.93;;;17.33;;
7845;SDS011;3968;51.424;6.788;2024-03-07T13:41:36;22.47;;;16.90;;
7845;SDS011;3968;51.424;6.788;2024-03-07T13:44:08;23.17;;;16.93;;
7845;SDS011;3968;51.424;6.788;2024-03-07T13:46:34;20.83;;;16.83;;
7845;SDS011;3968;51.424;6.788;2024-03-07T13:49:00;22.60;;;16.53;;
7845;SDS011;3968;51.424;6.788;2024-03-07T13:51:35;21.50;;;16.70;;
7845;SDS011;3968;51.424;6.788;2024-03-07T13:54:02;22.50;;;16.90;;
7845;SDS011;3968;51.424;6.788;2024-03-07T13:56:53;19.63;;;14.97;;
7845;SDS011;3968;51.424;6.788;2024-03-07T13:59:49;18.67;;;15.33;;
7845;SDS011;3968;51.424;6.788;2024-03-07T14:13:50;19.53;;;14.40;;
7845;SDS011;3968;51.424;6.788;2024-03-07T14:20:12;14.83;;;12.53;;
7845;SDS011;3968;51.424;6.788;2024-03-07T14:23:25;14.60;;;11.40;;
7845;SDS011;3968;51.424;6.788;2024-03-07T14:26:02;17.77;;;11.90;;
7845;SDS011;3968;51.424;6.788;2024-03-07T14:28:52;14.53;;;11.70;;
7845;SDS011;3968;51.424;6.788;2024-03-07T14:31:42;17.90;;;11.80;;
7845;SDS011;3968;51.424;6.788;2024-03-07T14:34:14;18.50;;;12.20;;
7845;SDS011;3968;51.424;6.788;2024-03-07T14:36:47;14.40;;;11.13;;
7845;SDS011;3968;51.424;6.788;2024-03-07T14:39:18;17.63;;;11.93;;
7845;SDS011;3968;51.424;6.788;2024-03-07T14:44:20;13.50;;;10.43;;
7845;SDS011;3968;51.424;6.788;2024-03-07T14:46:47;13.10;;;10.30;;
7845;SDS011;3968;51.424;6.788;2024-03-07T14:49:18;15.13;;;10.47;;
7845;SDS011;3968;51.424;6.788;2024-03-07T14:51:44;11.83;;;9.87;;
7845;SDS011;3968;51.424;6.788;2024-03-07T14:54:14;13.10;;;10.67;;
7845;SDS011;3968;51.424;6.788;2024-03-07T14:56:40;14.63;;;10.50;;
7845;SDS011;3968;51.424;6.788;2024-03-07T14:59:06;11.00;;;9.73;;
7845;SDS011;3968;51.424;6.788;2024-03-07T15:01:32;13.10;;;10.00;;
7845;SDS011;3968;51.424;6.788;2024-03-07T15:03:59;11.23;;;8.80;;
7845;SDS011;3968;51.424;6.788;2024-03-07T15:06:28;10.47;;;8.60;;
7845;SDS011;3968;51.424;6.788;2024-03-07T15:08:56;12.60;;;8.80;;
7845;SDS011;3968;51.424;6.788;2024-03-07T15:11:29;11.17;;;9.47;;
7845;SDS011;3968;51.424;6.788;2024-03-07T15:13:59;10.67;;;8.73;;
7845;SDS011;3968;51.424;6.788;2024-03-07T15:16:26;11.80;;;8.87;;
7845;SDS011;3968;51.424;6.788;2024-03-07T15:18:53;10.33;;;7.87;;